Louis Armstrong New Orleans International Airport
KMSY : rendu visible

Aérodrome :











RETROUVEZ-NOUS SUR...

 
LOGIN :

S'inscrire | Disclaimer

   EN    FR    IT 

 









Légende :    VFR   VFR Marginal   IFR   IFR Intensif   IFR Très Intensif
Visi : 
Plafond : 
>= 8 km
>= 3000ft
5 à 8 km
1000 à 3000 ft
1500m à 5 km
500 à 1000 ft
800 à 1500m
200 à 500 ft
< 800m
< 200 ft
Symboles :   Orages  Brouillard  Fortes neiges  Fortes précipitations  Vent > 20 kt






- Altitude de l'aérodrome : 4 ft
- Code IATA : MSY


KMSY - Louis Armstrong New Orleans International

DERNIER METAR :
  • 290853Z 23004KT 6SM BR BKN024 OVC036 24/22 A2999 RMK AO2 SLP160 T02390217 51004 $

METARs EXPIRÉS :
  • 290753Z 23007KT 7SM BKN034 OVC250 24/22 A2999 RMK AO2 SLP160 T02440217 $
  • 290653Z 21007KT 7SM BKN250 24/22 A2998 RMK AO2 SLP156 T02440217 $

TAF KMSY
Valide du 29 à 09h jusqu'au 30 à 12h UTC


290913Z 2909/3012 23005KT P6SM BKN025 OVC035
FM291100 34005KT P6SM OVC025
FM291700 02005KT P6SM BKN040
FM300000 00000KT P6SM BKN070



MET'MAP, la Météo Aéronautique d'un coup d'oeil ! - Copyright ORBIFLY Décembre 2007 - Disclaimer

ORBIFLY MET'MAP TEAM :

Programmation & Développement : Alexandra Zaïnal
Sur une idée originale de : Baudouin d'Aumeries
Assistance à la programmation : Marc-Olivier Méhu
Soutien technique & logistique : Manuel Goepfert

Contact : metmap@orbifly.com




SOURCES & CREDITS :

   NOAA       Earth
Advisory